createdAt,value
2023-09-23T00:02:09.918Z,17.0
2023-09-23T00:05:10.400Z,17.0
2023-09-23T00:08:09.818Z,17.0
2023-09-23T00:11:09.594Z,17.0
2023-09-23T00:14:09.604Z,17.0
2023-09-23T00:17:09.901Z,16.9
2023-09-23T00:20:09.786Z,16.9
2023-09-23T00:23:09.461Z,16.8
2023-09-23T00:26:09.602Z,16.8
2023-09-23T00:29:09.492Z,16.8
2023-09-23T00:32:09.860Z,16.7
2023-09-23T00:35:09.738Z,16.6
2023-09-23T00:38:09.585Z,16.5
2023-09-23T00:41:09.794Z,16.5
2023-09-23T00:44:09.811Z,16.5
2023-09-23T00:47:09.798Z,16.5
2023-09-23T00:50:09.696Z,16.5
2023-09-23T00:53:10.047Z,16.6
2023-09-23T00:56:10.136Z,16.6
2023-09-23T00:59:11.032Z,16.6
2023-09-23T01:02:09.942Z,16.6
2023-09-23T01:05:10.803Z,16.5
2023-09-23T01:08:09.420Z,16.5
2023-09-23T01:11:09.842Z,16.6
2023-09-23T01:14:09.535Z,16.7
2023-09-23T01:17:09.931Z,16.7
2023-09-23T01:20:10.082Z,16.7
2023-09-23T01:23:09.394Z,16.8
2023-09-23T01:26:09.590Z,16.9
2023-09-23T01:29:09.448Z,17.0
2023-09-23T01:32:09.988Z,17.1
2023-09-23T01:35:09.766Z,17.1
2023-09-23T01:38:09.643Z,17.2
2023-09-23T01:41:09.715Z,17.2
2023-09-23T01:44:09.833Z,17.1
2023-09-23T01:47:10.145Z,17.0
2023-09-23T01:50:09.615Z,17.0
2023-09-23T01:53:09.694Z,17.0
2023-09-23T01:56:09.553Z,17.0
2023-09-23T01:59:09.968Z,16.9
2023-09-23T02:02:10.373Z,16.9
2023-09-23T02:05:09.977Z,17.0
2023-09-23T02:08:09.491Z,17.1
2023-09-23T02:11:09.601Z,17.1
2023-09-23T02:14:09.582Z,17.3
2023-09-23T02:17:09.640Z,17.4
2023-09-23T02:20:09.686Z,17.3
2023-09-23T02:23:09.493Z,17.3
2023-09-23T02:26:09.512Z,17.3
2023-09-23T02:29:09.588Z,17.3
2023-09-23T02:32:09.921Z,17.2
2023-09-23T02:35:09.577Z,17.2
2023-09-23T02:38:09.485Z,17.1
2023-09-23T02:41:09.410Z,17.0
2023-09-23T02:44:09.575Z,16.9
2023-09-23T02:47:10.154Z,16.9
2023-09-23T02:50:09.943Z,16.8
2023-09-23T02:53:09.759Z,16.8
2023-09-23T02:56:09.975Z,16.8
2023-09-23T02:59:10.508Z,16.9
2023-09-23T03:02:09.884Z,16.9
2023-09-23T03:05:10.442Z,16.9
2023-09-23T03:08:09.796Z,16.8
2023-09-23T03:11:09.961Z,16.9
2023-09-23T03:14:09.740Z,17.0
2023-09-23T03:17:09.785Z,17.0
2023-09-23T03:20:10.292Z,17.0
2023-09-23T03:23:09.506Z,17.0
2023-09-23T03:26:09.555Z,17.0
2023-09-23T03:29:09.743Z,17.0
2023-09-23T03:32:12.131Z,16.9
2023-09-23T03:35:09.522Z,16.9
2023-09-23T03:38:16.722Z,16.9
2023-09-23T03:41:09.548Z,17.0
2023-09-23T03:44:09.689Z,17.0
2023-09-23T03:47:09.931Z,16.9
2023-09-23T03:50:09.881Z,16.9
2023-09-23T03:53:09.661Z,16.9
2023-09-23T03:56:09.493Z,17.0
2023-09-23T03:59:09.979Z,17.0
2023-09-23T04:02:09.777Z,16.8
2023-09-23T04:05:09.610Z,16.7
2023-09-23T04:08:09.456Z,16.8
2023-09-23T04:11:09.578Z,16.7
2023-09-23T04:14:09.673Z,16.6
2023-09-23T04:17:09.621Z,16.5
2023-09-23T04:20:10.288Z,16.5
2023-09-23T04:23:10.003Z,16.5
2023-09-23T04:26:09.687Z,16.5
2023-09-23T04:29:09.806Z,16.5
2023-09-23T04:32:09.647Z,16.6
2023-09-23T04:35:09.721Z,16.6
2023-09-23T04:38:09.520Z,16.6
2023-09-23T04:41:09.805Z,16.6
2023-09-23T04:44:09.566Z,16.6
2023-09-23T04:47:09.644Z,16.6
2023-09-23T04:50:09.674Z,16.6
2023-09-23T04:53:09.706Z,16.6
2023-09-23T04:56:09.644Z,16.6
2023-09-23T04:59:09.451Z,16.6
2023-09-23T05:02:09.778Z,16.6
2023-09-23T05:05:09.953Z,16.6
2023-09-23T05:08:10.357Z,16.6
2023-09-23T05:11:09.502Z,16.7
2023-09-23T05:14:09.709Z,16.6
2023-09-23T05:17:10.448Z,16.5
2023-09-23T05:20:10.081Z,16.6
2023-09-23T05:23:09.458Z,16.6
2023-09-23T05:26:09.838Z,16.5
2023-09-23T05:29:09.788Z,16.5
2023-09-23T05:32:09.708Z,16.7
2023-09-23T05:35:09.453Z,16.7
2023-09-23T05:38:09.631Z,16.6
2023-09-23T05:41:09.521Z,16.6
2023-09-23T05:44:09.646Z,16.6
2023-09-23T05:47:09.687Z,16.6
2023-09-23T05:50:09.736Z,16.6
2023-09-23T05:53:09.580Z,16.6
2023-09-23T05:56:09.582Z,16.7
2023-09-23T05:59:09.630Z,16.8
2023-09-23T06:02:10.268Z,16.8
2023-09-23T06:05:10.155Z,16.9
2023-09-23T06:08:09.636Z,16.9
2023-09-23T06:11:10.603Z,16.9
2023-09-23T06:14:09.737Z,16.9
2023-09-23T06:17:10.696Z,16.9
2023-09-23T06:20:09.840Z,16.9
2023-09-23T06:23:09.578Z,16.9
2023-09-23T06:26:09.887Z,17.0
2023-09-23T06:29:09.624Z,17.0
2023-09-23T06:32:10.117Z,17.0
2023-09-23T06:35:09.573Z,17.0
2023-09-23T06:38:09.393Z,17.0
2023-09-23T06:41:09.563Z,17.0
2023-09-23T06:44:09.413Z,17.1
2023-09-23T06:47:09.842Z,17.1
2023-09-23T06:50:09.589Z,17.1
2023-09-23T06:53:09.606Z,17.1
2023-09-23T06:56:09.791Z,17.1
2023-09-23T06:59:09.522Z,17.2
2023-09-23T07:02:09.770Z,17.1
2023-09-23T07:05:10.355Z,17.0
2023-09-23T07:08:09.508Z,17.0
2023-09-23T07:11:09.684Z,17.0
2023-09-23T07:14:09.528Z,17.0
2023-09-23T07:17:09.941Z,17.0
2023-09-23T07:20:13.019Z,16.9
2023-09-23T07:23:09.592Z,16.9
2023-09-23T07:26:09.588Z,16.9
2023-09-23T07:29:09.817Z,17.0
2023-09-23T07:32:11.931Z,17.0
2023-09-23T07:35:10.142Z,17.0
2023-09-23T07:38:09.599Z,17.1
2023-09-23T07:41:09.324Z,16.9
2023-09-23T07:44:09.316Z,17.0
2023-09-23T07:47:09.599Z,17.0
2023-09-23T07:50:10.207Z,18.9
2023-09-23T07:53:09.231Z,17.0
2023-09-23T07:56:09.271Z,16.2
2023-09-23T07:59:09.340Z,15.9
2023-09-23T08:02:09.458Z,15.6
2023-09-23T08:05:10.123Z,15.3
2023-09-23T08:08:09.319Z,15.2
2023-09-23T08:11:09.367Z,14.9
2023-09-23T08:14:11.732Z,14.8
2023-09-23T08:17:09.744Z,14.9
2023-09-23T08:20:09.277Z,14.9
2023-09-23T08:23:11.164Z,15.0
2023-09-23T08:26:09.394Z,15.1
2023-09-23T08:29:09.305Z,15.4
2023-09-23T08:32:09.580Z,15.6
2023-09-23T08:35:10.155Z,15.6
2023-09-23T08:38:09.296Z,15.5
2023-09-23T08:41:09.428Z,15.4
2023-09-23T08:44:09.417Z,15.3
2023-09-23T08:47:09.652Z,15.4
2023-09-23T08:50:10.263Z,15.5
2023-09-23T08:53:09.507Z,15.6
2023-09-23T08:56:09.846Z,15.9
2023-09-23T08:59:09.371Z,16.0
2023-09-23T09:02:09.572Z,15.9
2023-09-23T09:05:09.474Z,15.8
2023-09-23T09:08:09.859Z,15.7
2023-09-23T09:11:09.903Z,15.9
2023-09-23T09:14:09.436Z,16.0
2023-09-23T09:17:09.430Z,16.4
2023-09-23T09:20:09.354Z,16.5
2023-09-23T09:23:09.318Z,16.4
2023-09-23T09:26:09.306Z,16.2
2023-09-23T09:29:09.276Z,16.1
2023-09-23T09:32:21.760Z,15.8
2023-09-23T09:35:09.649Z,15.7
2023-09-23T09:38:19.758Z,15.6
2023-09-23T09:41:09.288Z,15.8
2023-09-23T09:44:10.203Z,16.3
2023-09-23T09:47:09.464Z,16.7
2023-09-23T09:50:09.945Z,16.6
2023-09-23T09:53:09.251Z,16.3
2023-09-23T09:56:09.336Z,16.0
2023-09-23T09:59:09.459Z,15.9
2023-09-23T10:02:10.004Z,15.8
2023-09-23T10:05:10.189Z,15.9
2023-09-23T10:08:09.440Z,15.9
2023-09-23T10:11:09.563Z,15.8
2023-09-23T10:14:09.658Z,15.5
2023-09-23T10:17:09.860Z,15.5
2023-09-23T10:20:10.632Z,15.6
2023-09-23T10:23:09.425Z,15.8
2023-09-23T10:26:10.196Z,15.9
2023-09-23T10:29:09.435Z,15.7
2023-09-23T10:32:09.755Z,15.8
2023-09-23T10:35:18.778Z,16.0
2023-09-23T10:38:09.545Z,16.2
2023-09-23T10:41:09.746Z,16.3
2023-09-23T10:44:09.570Z,16.4
2023-09-23T10:47:09.669Z,16.8
2023-09-23T10:50:10.056Z,17.2
2023-09-23T10:53:09.433Z,17.5
2023-09-23T10:56:11.297Z,17.7
2023-09-23T10:59:09.563Z,17.8
2023-09-23T11:02:09.670Z,17.9
2023-09-23T11:05:10.851Z,17.9
2023-09-23T11:08:09.476Z,17.9
2023-09-23T11:11:09.569Z,18.0
2023-09-23T11:14:09.624Z,17.8
2023-09-23T11:17:09.631Z,18.0
2023-09-23T11:20:10.229Z,18.1
2023-09-23T11:23:09.426Z,18.3
2023-09-23T11:26:09.531Z,18.4
2023-09-23T11:29:09.747Z,18.2
2023-09-23T11:32:09.670Z,17.9
2023-09-23T11:35:09.543Z,17.8
2023-09-23T11:38:09.546Z,17.7
2023-09-23T11:41:09.763Z,17.8
2023-09-23T11:44:09.451Z,17.8
2023-09-23T11:47:09.603Z,17.8
2023-09-23T11:50:09.629Z,17.8
2023-09-23T11:53:09.711Z,18.0
2023-09-23T11:56:09.704Z,18.2
2023-09-23T11:59:19.766Z,18.2
2023-09-23T12:02:09.667Z,18.3
2023-09-23T12:05:10.530Z,18.4
2023-09-23T12:08:09.579Z,18.3
2023-09-23T12:11:09.541Z,18.2
2023-09-23T12:14:11.234Z,18.3
2023-09-23T12:17:10.104Z,18.4
2023-09-23T12:20:09.929Z,18.5
2023-09-23T12:23:09.360Z,18.5
2023-09-23T12:26:09.593Z,18.7
2023-09-23T12:29:09.455Z,18.6
2023-09-23T12:32:09.526Z,18.8
2023-09-23T12:35:09.763Z,18.9
2023-09-23T12:38:09.427Z,18.8
2023-09-23T12:41:09.527Z,18.9
2023-09-23T12:44:09.421Z,19.0
2023-09-23T12:47:12.141Z,19.2
2023-09-23T12:50:10.012Z,19.8
2023-09-23T12:53:09.336Z,20.0
2023-09-23T12:56:09.527Z,20.1
2023-09-23T12:59:09.392Z,20.0
2023-09-23T13:02:11.255Z,20.0
2023-09-23T13:05:10.458Z,19.7
2023-09-23T13:08:09.616Z,19.4
2023-09-23T13:11:09.521Z,19.2
2023-09-23T13:14:09.442Z,19.2
2023-09-23T13:17:10.007Z,19.5
2023-09-23T13:20:09.952Z,19.8
2023-09-23T13:23:09.598Z,19.7
2023-09-23T13:26:09.602Z,19.6
2023-09-23T13:29:09.488Z,19.6
2023-09-23T13:32:09.759Z,19.9
2023-09-23T13:35:11.932Z,20.1
2023-09-23T13:38:09.838Z,20.2
2023-09-23T13:41:09.456Z,20.4
2023-09-23T13:44:09.509Z,20.1
2023-09-23T13:47:09.976Z,19.9
2023-09-23T13:50:10.142Z,19.8
2023-09-23T13:53:09.458Z,19.6
2023-09-23T13:56:09.408Z,19.6
2023-09-23T13:59:09.742Z,20.1
2023-09-23T14:02:09.747Z,20.1
2023-09-23T14:05:09.821Z,20.0
2023-09-23T14:08:09.511Z,19.9
2023-09-23T14:11:22.529Z,20.1
2023-09-23T14:14:09.443Z,20.1
2023-09-23T14:17:09.771Z,20.0
2023-09-23T14:20:10.072Z,19.8
2023-09-23T14:23:09.537Z,20.0
2023-09-23T14:26:09.605Z,20.2
2023-09-23T14:29:09.384Z,20.3
2023-09-23T14:32:09.807Z,20.3
2023-09-23T14:35:09.763Z,20.4
2023-09-23T14:38:09.629Z,20.3
2023-09-23T14:41:09.501Z,20.3
2023-09-23T14:44:09.521Z,20.4
2023-09-23T14:47:10.111Z,20.4
2023-09-23T14:50:10.009Z,20.2
2023-09-23T14:53:09.373Z,20.2
2023-09-23T14:56:11.125Z,20.2
2023-09-23T14:59:09.482Z,20.3
2023-09-23T15:02:12.600Z,20.3
2023-09-23T15:05:10.951Z,20.3
2023-09-23T15:08:09.681Z,20.4
2023-09-23T15:11:11.018Z,20.8
2023-09-23T15:14:09.518Z,21.0
2023-09-23T15:17:09.927Z,21.2
2023-09-23T15:20:09.975Z,21.2
2023-09-23T15:23:09.515Z,21.3
2023-09-23T15:26:09.670Z,20.9
2023-09-23T15:29:09.832Z,20.7
2023-09-23T15:32:09.781Z,20.6
2023-09-23T15:35:10.210Z,20.7
2023-09-23T15:38:09.411Z,20.6
2023-09-23T15:41:12.024Z,20.5
2023-09-23T15:44:09.450Z,20.6
2023-09-23T15:47:09.668Z,20.6
2023-09-23T15:50:16.236Z,20.6
2023-09-23T15:53:09.619Z,20.8
2023-09-23T15:56:09.382Z,20.9
2023-09-23T15:59:09.516Z,21.3
2023-09-23T16:02:09.858Z,21.3
2023-09-23T16:05:11.804Z,21.3
2023-09-23T16:08:09.467Z,21.1
2023-09-23T16:11:09.385Z,21.0
2023-09-23T16:14:09.498Z,21.0
2023-09-23T16:17:10.821Z,20.8
2023-09-23T16:20:11.352Z,20.8
2023-09-23T16:23:10.019Z,20.8
2023-09-23T16:26:09.917Z,20.8
2023-09-23T16:29:09.514Z,20.7
2023-09-23T16:32:10.118Z,20.5
2023-09-23T16:35:09.872Z,20.5
2023-09-23T16:38:09.720Z,20.5
2023-09-23T16:41:09.652Z,20.5
2023-09-23T16:44:09.775Z,20.6
2023-09-23T16:47:10.013Z,20.7
2023-09-23T16:50:10.314Z,20.7
2023-09-23T16:53:09.722Z,21.0
2023-09-23T16:56:09.788Z,21.0
2023-09-23T16:59:09.662Z,20.9
2023-09-23T17:02:11.126Z,21.0
2023-09-23T17:05:10.593Z,20.9
2023-09-23T17:08:09.703Z,21.0
2023-09-23T17:11:09.969Z,20.9
2023-09-23T17:14:12.002Z,20.9
2023-09-23T17:17:09.954Z,21.0
2023-09-23T17:20:10.398Z,21.1
2023-09-23T17:23:10.455Z,21.6
2023-09-23T17:26:10.130Z,22.0
2023-09-23T17:29:09.690Z,22.2
2023-09-23T17:32:09.983Z,22.4
2023-09-23T17:35:10.212Z,22.5
2023-09-23T17:38:11.044Z,22.3
2023-09-23T17:41:09.799Z,22.3
2023-09-23T17:44:09.680Z,22.2
2023-09-23T17:47:09.955Z,22.3
2023-09-23T17:50:09.946Z,22.3
2023-09-23T17:53:10.083Z,22.3
2023-09-23T17:56:09.872Z,22.3
2023-09-23T17:59:11.966Z,22.1
2023-09-23T18:02:10.567Z,22.0
2023-09-23T18:05:12.079Z,22.1
2023-09-23T18:08:09.723Z,22.4
2023-09-23T18:11:09.681Z,22.5
2023-09-23T18:14:09.763Z,22.6
2023-09-23T18:17:09.888Z,22.7
2023-09-23T18:20:10.540Z,22.6
2023-09-23T18:23:09.663Z,22.5
2023-09-23T18:26:10.188Z,22.5
2023-09-23T18:29:11.613Z,22.2
2023-09-23T18:32:10.211Z,22.0
2023-09-23T18:35:10.799Z,21.8
2023-09-23T18:38:09.981Z,21.6
2023-09-23T18:41:10.027Z,21.4
2023-09-23T18:44:09.727Z,21.3
2023-09-23T18:47:10.064Z,21.2
2023-09-23T18:50:24.024Z,21.1
2023-09-23T18:53:09.725Z,21.1
2023-09-23T18:56:09.820Z,21.0
2023-09-23T18:59:09.961Z,21.0
2023-09-23T19:02:10.484Z,20.9
2023-09-23T19:05:11.040Z,20.7
2023-09-23T19:08:10.670Z,20.7
2023-09-23T19:11:09.677Z,20.5
2023-09-23T19:14:09.616Z,20.2
2023-09-23T19:17:10.240Z,20.0
2023-09-23T19:20:10.132Z,20.1
2023-09-23T19:23:09.603Z,20.1
2023-09-23T19:26:09.666Z,20.0
2023-09-23T19:29:09.740Z,20.0
2023-09-23T19:32:10.045Z,20.2
2023-09-23T19:35:10.438Z,20.4
2023-09-23T19:38:10.209Z,20.5
2023-09-23T19:41:10.644Z,20.6
2023-09-23T19:44:17.207Z,20.6
2023-09-23T19:47:10.404Z,20.5
2023-09-23T19:50:10.636Z,20.2
2023-09-23T19:53:09.538Z,20.0
2023-09-23T19:56:09.371Z,19.6
2023-09-23T19:59:09.502Z,19.2
2023-09-23T20:02:12.647Z,18.8
2023-09-23T20:05:10.341Z,18.6
2023-09-23T20:08:09.556Z,18.4
2023-09-23T20:11:09.921Z,18.2
2023-09-23T20:14:09.562Z,18.1
2023-09-23T20:17:09.702Z,18.0
2023-09-23T20:20:10.074Z,17.9
2023-09-23T20:23:09.468Z,17.9
2023-09-23T20:26:09.597Z,17.8
2023-09-23T20:29:09.685Z,17.8
2023-09-23T20:32:17.514Z,17.7
2023-09-23T20:35:10.104Z,17.7
2023-09-23T20:38:09.643Z,17.7
2023-09-23T20:41:11.992Z,17.6
2023-09-23T20:44:09.631Z,17.6
2023-09-23T20:47:09.675Z,17.6
2023-09-23T20:50:09.700Z,17.5
2023-09-23T20:53:09.571Z,17.5
2023-09-23T20:56:10.028Z,17.4
2023-09-23T20:59:09.464Z,17.4
2023-09-23T21:02:09.653Z,17.3
2023-09-23T21:05:11.843Z,17.3
2023-09-23T21:08:10.665Z,17.3
2023-09-23T21:11:09.569Z,17.2
2023-09-23T21:14:09.425Z,17.2
2023-09-23T21:17:09.650Z,17.2
2023-09-23T21:20:09.775Z,17.2
2023-09-23T21:23:09.507Z,17.1
2023-09-23T21:26:09.615Z,17.1
2023-09-23T21:29:09.433Z,17.0
2023-09-23T21:32:09.831Z,17.0
2023-09-23T21:35:10.367Z,16.9
2023-09-23T21:38:09.663Z,16.8
2023-09-23T21:41:09.472Z,16.8
2023-09-23T21:44:09.367Z,16.8
2023-09-23T21:47:09.725Z,16.8
2023-09-23T21:50:09.667Z,16.7
2023-09-23T21:53:09.500Z,16.7
2023-09-23T21:56:09.498Z,16.6
2023-09-23T21:59:13.494Z,16.6
2023-09-23T22:02:09.873Z,16.6
2023-09-23T22:05:11.391Z,16.5
2023-09-23T22:08:09.551Z,16.5
2023-09-23T22:11:09.393Z,16.5
2023-09-23T22:14:09.339Z,16.4
2023-09-23T22:17:09.541Z,16.4
2023-09-23T22:20:09.733Z,16.4
2023-09-23T22:23:09.437Z,16.4
2023-09-23T22:26:09.487Z,16.4
2023-09-23T22:29:09.501Z,16.4
2023-09-23T22:32:10.089Z,16.4
2023-09-23T22:35:10.279Z,16.3
2023-09-23T22:38:09.454Z,16.3
2023-09-23T22:41:19.430Z,16.2
2023-09-23T22:44:09.327Z,16.2
2023-09-23T22:47:19.757Z,16.2
2023-09-23T22:50:09.971Z,16.1
2023-09-23T22:53:09.368Z,16.1
2023-09-23T22:56:09.530Z,16.1
2023-09-23T22:59:09.375Z,16.0
2023-09-23T23:02:10.587Z,16.0
2023-09-23T23:05:10.645Z,16.0
2023-09-23T23:08:12.334Z,15.9
2023-09-23T23:11:09.908Z,15.9
2023-09-23T23:14:12.995Z,15.9
2023-09-23T23:17:10.091Z,15.9
2023-09-23T23:20:09.910Z,15.9
2023-09-23T23:23:09.673Z,16.1
2023-09-23T23:26:09.899Z,16.2
2023-09-23T23:29:09.831Z,16.0
2023-09-23T23:32:10.887Z,16.0
2023-09-23T23:35:10.327Z,15.9
2023-09-23T23:38:09.697Z,15.9
2023-09-23T23:41:09.925Z,15.8
2023-09-23T23:44:09.599Z,15.7
2023-09-23T23:47:10.416Z,15.7
2023-09-23T23:50:10.396Z,15.7
2023-09-23T23:53:10.127Z,15.7
2023-09-23T23:56:10.067Z,15.7
2023-09-23T23:59:09.936Z,15.6
